Flight Track Log - Related Links

Times and Time Zones

All times are in EDT time to prevent confusion due to time zone crossing. See the VRT51 flight status page for this flight to view local times or setup timezone preferences in your user account.

Time Position Orientation Groundspeed Altitude Reporting Facility
EDT Latitude Longitude Course Direction KTS MPH feet Rate Location/Type
Wed 08:01:39 PM 35.2333 -85.4992 313° West 334 384 15,500  Level Memphis Center
Wed 08:02:00 PM 35.1958 -85.4540 314° West  Level FlightAware Approximate
Wed 08:02:41 PM 35.3200 -85.6106 314° West 371 427 16,000  Level Memphis Center
Wed 08:03:00 PM 35.2472 -85.5202 314° West  Level FlightAware Approximate
Wed 08:03:43 PM 35.3983 -85.7094 314° West 397 457 16,000  Level Memphis Center
Wed 08:04:00 PM 35.2980 -85.5871 311° West  Level FlightAware Approximate
Wed 08:04:45 PM 35.4739 -85.8075 313° West 397 457 16,000  Level Memphis Center
Wed 08:05:00 PM 35.3471 -85.6559 311° West  Level FlightAware Approximate
Wed 08:05:47 PM 35.5525 -85.9078 314° West 399 459 16,000  Level Memphis Center
Wed 08:06:49 PM 35.6269 -86.0078 313° West 409 471 15,200 -1,452 Descending Memphis Center
Wed 08:07:51 PM 35.7122 -86.1217 313° West 390 449 13,000 -1,935 Descending Memphis Center
Wed 08:08:53 PM 35.7819 -86.2142 313° West 373 429 11,200 -1,500 Descending Memphis Center
Wed 08:09:55 PM 35.8433 -86.2967 313° West 335 386 9,900 -1,306 Descending Memphis Center
Wed 08:10:57 PM 35.8969 -86.3672 313° West 292 336 8,500 -1,680 Descending Memphis Center
Wed 08:12:00 PM 35.9461 -86.4319 313° West 266 306 6,400 -1,200 Descending Memphis Center
Wed 08:13:02 PM 35.9953 -86.4947 314° West 255 293 6,000 -194 Descending Memphis Center
Wed 08:14:04 PM 36.0439 -86.5611 312° West 257 296 6,000 -484 Level Memphis Center
Wed 08:15:06 PM 36.1161 -86.5611 360° North 241 277 5,000 -968 Descending Memphis Center
Wed 08:16:08 PM 36.1711 -86.5375 19° North 218 251 4,000 -1,065 Descending Memphis Center
Wed 08:17:10 PM 36.2219 -86.5367 North 211 243 2,800 -968 Descending Memphis Center
Wed 08:18:12 PM 36.2297 -86.5972 279° West 192 221 2,000 -387 Descending Memphis Center
Wed 08:19:14 PM 36.2011 -86.6308 223° Southwest 153 176 2,000 -341 Level Memphis Center
Wed 08:20:15 PM 36.1672 -86.6447 198° South 132 152 1,300 -634 Descending Memphis Center
Wed 08:21:17 PM 36.1350 -86.6586 199° South 126 145 700 -581 Descending Memphis Center

Login

Don't have an account? Register now (free) for customized features, flight alerts, and more!